Time;durP1;ratioP1;P1;durP2;ratioP2;P2;SDS_P1;SDS_P2;PMS_P1;PMS_P2;Temp;Humidity;BMP_temperature;BMP_pressure;BME280_temperature;BME280_humidity;BME280_pressure;Samples;Min_cycle;Max_cycle;Signal;HPM_P1;HPM_P2
2022/05/01 00:01:17;;;;;;;14.07;11.60;;;9.20;99.90;;;;;;5050311;28;20027;-55
2022/05/01 00:03:43;;;;;;;13.68;12.27;;;9.10;99.90;;;;;;5051319;28;20024;-54
2022/05/01 00:06:10;;;;;;;12.55;11.10;;;9.10;99.90;;;;;;5046636;28;20064;-52
2022/05/01 00:08:38;;;;;;;12.80;11.25;;;9.10;99.90;;;;;;5031902;28;20099;-54
2022/05/01 00:11:04;;;;;;;12.82;11.52;;;9.10;99.90;;;;;;5031618;28;20496;-52
2022/05/01 00:13:30;;;;;;;14.35;12.35;;;9.10;99.90;;;;;;5042711;28;20033;-54
2022/05/01 00:15:56;;;;;;;12.63;11.35;;;9.10;99.90;;;;;;5051508;28;20483;-54
2022/05/01 00:18:22;;;;;;;14.30;11.73;;;9.20;99.90;;;;;;5050970;28;20017;-53
2022/05/01 00:20:48;;;;;;;12.38;10.95;;;9.20;99.90;;;;;;5039908;28;20018;-54
2022/05/01 00:23:14;;;;;;;13.63;12.02;;;9.20;99.90;;;;;;5031630;28;20052;-51
2022/05/01 00:25:42;;;;;;;12.52;11.23;;;9.20;99.90;;;;;;5031778;28;20021;-53
2022/05/01 00:28:11;;;;;;;12.75;11.00;;;9.20;99.90;;;;;;5031583;28;20021;-55
2022/05/01 00:30:38;;;;;;;12.20;10.95;;;9.20;99.90;;;;;;5031459;28;20033;-56
2022/05/01 00:38:34;;;;;;;12.00;10.15;;;9.20;99.90;;;;;;5031236;28;20040;-56
2022/05/01 00:41:00;;;;;;;12.50;11.15;;;9.20;99.90;;;;;;5032778;28;20025;-54
2022/05/01 00:43:26;;;;;;;12.02;10.75;;;9.20;99.90;;;;;;5035663;28;20037;-53
2022/05/01 00:45:52;;;;;;;11.52;10.20;;;9.20;99.90;;;;;;5033506;28;20519;-55
2022/05/01 00:48:17;;;;;;;12.60;10.57;;;9.20;99.90;;;;;;5049572;28;20036;-52
2022/05/01 00:50:43;;;;;;;13.50;10.73;;;9.20;99.90;;;;;;5051007;28;20044;-55
2022/05/01 00:53:10;;;;;;;13.15;11.30;;;9.20;99.90;;;;;;5051039;28;20063;-56
2022/05/01 00:55:39;;;;;;;12.55;11.20;;;9.20;99.90;;;;;;5050893;28;20033;-52
2022/05/01 00:58:06;;;;;;;11.43;10.23;;;9.20;99.90;;;;;;5049643;28;20451;-51
2022/05/01 01:00:35;;;;;;;11.45;10.35;;;9.20;99.90;;;;;;5050167;28;20536;-53
2022/05/01 01:03:02;;;;;;;12.75;11.38;;;9.20;99.90;;;;;;5050758;28;20512;-55
2022/05/01 01:05:28;;;;;;;11.65;10.45;;;9.20;99.90;;;;;;5049640;28;20495;-55
2022/05/01 01:07:53;;;;;;;14.23;9.65;;;9.20;99.90;;;;;;5036655;28;20025;-57
2022/05/01 01:10:20;;;;;;;10.65;9.55;;;9.10;99.90;;;;;;5050937;28;20104;-55
2022/05/01 01:12:56;;;;;;;12.57;11.27;;;9.10;99.90;;;;;;5050153;28;20675;-55
2022/05/01 01:15:23;;;;;;;12.38;11.23;;;9.10;99.90;;;;;;5049409;28;20064;-53
2022/05/01 01:17:54;;;;;;;12.45;10.40;;;9.20;99.90;;;;;;5047846;28;20116;-50
2022/05/01 01:20:25;;;;;;;12.25;10.95;;;9.20;99.90;;;;;;5043284;28;20511;-58
2022/05/01 01:22:53;;;;;;;11.68;10.52;;;9.30;99.90;;;;;;5029811;28;20516;-53
2022/05/01 01:25:26;;;;;;;11.52;10.32;;;9.20;99.90;;;;;;5029261;28;20030;-55
2022/05/01 01:27:56;;;;;;;10.63;9.55;;;9.20;99.90;;;;;;5035141;28;20465;-57
2022/05/01 01:33:07;;;;;;;11.35;10.23;;;9.20;99.90;;;;;;5048744;28;20044;-54
2022/05/01 01:35:37;;;;;;;11.88;10.68;;;9.20;99.90;;;;;;5043853;28;20021;-53
2022/05/01 01:38:02;;;;;;;10.20;9.20;;;9.20;99.90;;;;;;5047240;28;20056;-53
2022/05/01 01:40:37;;;;;;;11.35;10.27;;;9.20;99.90;;;;;;5046525;28;20027;-54
2022/05/01 01:43:05;;;;;;;9.82;8.82;;;9.30;99.90;;;;;;5032617;28;20042;-55
2022/05/01 01:45:31;;;;;;;11.65;10.35;;;9.30;99.90;;;;;;5030259;28;20071;-52
2022/05/01 01:48:12;;;;;;;11.48;10.45;;;9.20;99.90;;;;;;5046724;28;20710;-54
2022/05/01 01:50:38;;;;;;;10.20;9.20;;;9.20;99.90;;;;;;5046537;28;20090;-55
2022/05/01 01:53:03;;;;;;;12.05;10.27;;;9.10;99.90;;;;;;5049427;28;20439;-55
2022/05/01 01:55:33;;;;;;;10.70;9.30;;;9.10;99.90;;;;;;5049492;28;20017;-54
2022/05/01 01:57:59;;;;;;;10.95;9.93;;;9.10;99.90;;;;;;5030641;28;20112;-54
2022/05/01 02:00:25;;;;;;;12.45;9.20;;;9.00;99.90;;;;;;5030238;28;20109;-56
2022/05/01 02:02:58;;;;;;;10.40;9.27;;;9.00;99.90;;;;;;5030786;28;20022;-52
2022/05/01 02:05:24;;;;;;;10.32;9.30;;;8.90;99.90;;;;;;5030597;28;20021;-54
2022/05/01 02:07:50;;;;;;;9.52;8.45;;;9.00;99.90;;;;;;5030795;28;20037;-55
2022/05/01 02:10:16;;;;;;;10.15;9.15;;;9.00;99.90;;;;;;5034081;28;20692;-52
2022/05/01 02:12:41;;;;;;;9.85;8.88;;;9.00;99.90;;;;;;5034120;28;20026;-53
2022/05/01 02:15:07;;;;;;;10.88;9.77;;;9.00;99.90;;;;;;5031514;28;20072;-55
2022/05/01 02:17:33;;;;;;;11.35;8.50;;;9.00;99.90;;;;;;5039356;28;20597;-53
2022/05/01 02:19:59;;;;;;;10.13;8.00;;;9.00;99.90;;;;;;5052884;28;20021;-52
2022/05/01 02:22:25;;;;;;;9.48;8.50;;;9.10;99.90;;;;;;5052346;28;20025;-55
2022/05/01 02:24:50;;;;;;;9.73;8.73;;;9.10;99.90;;;;;;5052510;28;20017;-51
2022/05/01 02:27:16;;;;;;;9.57;8.63;;;9.00;99.90;;;;;;5039405;28;20033;-59
2022/05/01 02:29:44;;;;;;;9.50;8.60;;;8.90;99.90;;;;;;5033239;28;20033;-54
2022/05/01 02:32:10;;;;;;;9.80;8.90;;;8.90;99.90;;;;;;5033097;28;20072;-53
2022/05/01 02:34:35;;;;;;;8.93;8.02;;;9.00;99.90;;;;;;5033399;28;20053;-55
2022/05/01 02:37:01;;;;;;;10.45;8.48;;;8.90;99.90;;;;;;5034573;28;20561;-54
2022/05/01 02:39:27;;;;;;;9.48;8.57;;;8.90;99.90;;;;;;5033236;28;20035;-52
2022/05/01 02:41:52;;;;;;;9.52;8.63;;;9.00;99.90;;;;;;5034538;28;20083;-54
2022/05/01 02:44:18;;;;;;;10.18;8.65;;;9.00;99.90;;;;;;5033185;28;20034;-55
2022/05/01 02:46:43;;;;;;;9.40;8.38;;;9.00;99.90;;;;;;5040306;28;20697;-53
2022/05/01 02:49:10;;;;;;;10.20;9.10;;;9.00;99.90;;;;;;5044481;28;20076;-55
2022/05/01 02:51:36;;;;;;;9.40;8.27;;;9.00;99.90;;;;;;5053262;28;20477;-55
2022/05/01 02:54:04;;;;;;;10.98;8.27;;;9.00;99.90;;;;;;5053170;28;20033;-55
2022/05/01 02:56:30;;;;;;;10.38;9.18;;;9.00;99.90;;;;;;5051766;28;20400;-52
2022/05/01 02:58:57;;;;;;;9.98;8.98;;;9.00;99.90;;;;;;5052659;28;20064;-52
2022/05/01 03:01:23;;;;;;;9.13;8.13;;;9.00;99.90;;;;;;5052944;28;20065;-51
2022/05/01 03:03:49;;;;;;;8.88;8.05;;;9.00;99.90;;;;;;5035419;28;20021;-51
2022/05/01 03:06:15;;;;;;;8.75;7.85;;;9.10;99.90;;;;;;5034521;28;20017;-52
2022/05/01 03:08:40;;;;;;;9.18;8.27;;;9.10;99.90;;;;;;5033206;28;20373;-52
2022/05/01 03:11:06;;;;;;;9.77;8.77;;;9.10;99.90;;;;;;5034230;28;20037;-54
2022/05/01 03:13:32;;;;;;;9.18;7.85;;;9.00;99.90;;;;;;5032571;28;20044;-53
2022/05/01 03:15:58;;;;;;;9.23;8.32;;;9.00;99.90;;;;;;5034376;28;20038;-53
2022/05/01 03:23:52;;;;;;;10.40;9.32;;;8.90;99.90;;;;;;5034120;28;20124;-53
2022/05/01 03:26:18;;;;;;;10.35;9.25;;;8.90;99.90;;;;;;5036423;28;20108;-53
2022/05/01 03:28:47;;;;;;;9.80;8.80;;;8.90;99.90;;;;;;5052877;28;20040;-52
2022/05/01 03:31:14;;;;;;;9.52;8.63;;;8.90;99.90;;;;;;5051038;28;20025;-53
2022/05/01 03:33:42;;;;;;;10.93;9.23;;;8.90;99.90;;;;;;5052538;28;20487;-54
2022/05/01 03:36:09;;;;;;;12.80;9.18;;;8.90;99.90;;;;;;5051061;28;20029;-52
2022/05/01 03:38:40;;;;;;;10.02;8.30;;;8.90;99.90;;;;;;5052395;28;20116;-53
2022/05/01 03:41:07;;;;;;;10.48;9.35;;;8.90;99.90;;;;;;5050945;28;20020;-52
2022/05/01 03:43:34;;;;;;;11.27;9.38;;;8.90;99.90;;;;;;5037096;28;20026;-53
2022/05/01 03:46:01;;;;;;;11.13;10.05;;;8.80;99.90;;;;;;5033339;28;20428;-55
2022/05/01 03:48:30;;;;;;;10.00;9.00;;;8.80;99.90;;;;;;5032155;28;20033;-52
2022/05/01 03:50:55;;;;;;;10.82;9.73;;;8.70;99.90;;;;;;5043483;28;20422;-54
2022/05/01 03:53:22;;;;;;;11.60;10.38;;;8.70;99.90;;;;;;5052275;28;20120;-52
2022/05/01 03:55:49;;;;;;;9.95;8.95;;;8.80;99.90;;;;;;5051701;28;20033;-54
2022/05/01 03:58:15;;;;;;;10.45;9.43;;;8.80;99.90;;;;;;5032292;28;20041;-52
2022/05/01 04:00:44;;;;;;;10.43;9.43;;;8.80;99.90;;;;;;5042902;28;20377;-52
2022/05/01 04:03:11;;;;;;;9.00;8.10;;;8.90;99.90;;;;;;5052152;28;20104;-51
2022/05/01 04:05:37;;;;;;;9.80;8.90;;;8.90;99.90;;;;;;5051938;28;20013;-49
2022/05/01 04:08:03;;;;;;;9.45;8.55;;;9.00;99.90;;;;;;5045705;28;20128;-53
2022/05/01 04:10:29;;;;;;;9.75;8.80;;;8.90;99.90;;;;;;5051896;28;20040;-56
2022/05/01 04:12:55;;;;;;;9.68;8.68;;;8.80;99.90;;;;;;5050178;28;20028;-58
2022/05/01 04:15:22;;;;;;;9.98;9.07;;;8.80;99.90;;;;;;5051670;28;20436;-52
2022/05/01 04:17:48;;;;;;;12.18;9.43;;;8.70;99.90;;;;;;5051496;28;20039;-52
2022/05/01 04:20:16;;;;;;;10.02;9.13;;;8.70;99.90;;;;;;5042327;28;20044;-54
2022/05/01 04:22:46;;;;;;;9.73;8.73;;;8.70;99.90;;;;;;5032289;28;20049;-54
2022/05/01 04:25:16;;;;;;;10.05;8.98;;;8.70;99.90;;;;;;5032936;28;20501;-54
2022/05/01 04:27:42;;;;;;;10.43;9.32;;;8.70;99.90;;;;;;5046461;28;20032;-57
2022/05/01 04:30:09;;;;;;;9.23;8.32;;;8.80;99.90;;;;;;5051447;28;20017;-53
2022/05/01 04:32:50;;;;;;;8.25;7.43;;;8.80;99.90;;;;;;5051121;28;20768;-53
2022/05/01 04:35:25;;;;;;;9.95;7.60;;;8.80;99.90;;;;;;5051709;28;20029;-56
2022/05/01 04:37:52;;;;;;;7.88;7.07;;;8.80;99.90;;;;;;5049578;28;20031;-56
2022/05/01 04:40:19;;;;;;;7.40;6.50;;;8.90;99.90;;;;;;5051066;28;20060;-54
2022/05/01 04:42:45;;;;;;;8.13;7.30;;;9.00;99.90;;;;;;5049209;28;20047;-56
2022/05/01 04:45:11;;;;;;;6.78;6.18;;;8.90;99.90;;;;;;5032291;28;20065;-55
2022/05/01 04:47:38;;;;;;;6.78;6.18;;;9.00;99.90;;;;;;5031444;28;20033;-56
2022/05/01 04:50:04;;;;;;;6.93;6.22;;;9.00;99.90;;;;;;5041487;28;20126;-56
2022/05/01 04:52:30;;;;;;;6.75;6.05;;;9.00;99.90;;;;;;5031166;28;20038;-55
2022/05/01 04:54:56;;;;;;;7.55;6.80;;;9.00;99.90;;;;;;5047640;28;20017;-55
2022/05/01 04:57:22;;;;;;;6.95;6.25;;;9.10;99.90;;;;;;5051198;28;20028;-56
2022/05/01 04:59:48;;;;;;;6.50;5.90;;;9.10;99.90;;;;;;5051295;28;20025;-54
2022/05/01 05:02:14;;;;;;;7.60;6.72;;;9.20;99.90;;;;;;5051345;28;20022;-57
2022/05/01 05:04:40;;;;;;;6.93;6.25;;;9.20;99.90;;;;;;5051000;28;20099;-55
2022/05/01 05:07:06;;;;;;;6.45;5.85;;;9.20;99.90;;;;;;5041248;28;20033;-56
2022/05/01 05:12:17;;;;;;;6.80;6.10;;;9.30;99.90;;;;;;5030897;28;20104;-54
2022/05/01 05:14:42;;;;;;;6.25;5.63;;;9.20;99.90;;;;;;5031720;28;20045;-54
2022/05/01 05:17:09;;;;;;;6.82;6.15;;;9.20;99.90;;;;;;5032213;28;20030;-57
2022/05/01 05:19:36;;;;;;;5.82;5.30;;;9.20;99.90;;;;;;5050600;28;20044;-53
2022/05/01 05:22:03;;;;;;;6.00;5.38;;;9.30;99.90;;;;;;5050642;28;20032;-53
2022/05/01 05:24:29;;;;;;;6.15;5.63;;;9.50;99.90;;;;;;5046589;28;20033;-57
2022/05/01 05:26:56;;;;;;;7.05;6.35;;;9.40;99.90;;;;;;5039203;28;20722;-54
2022/05/01 05:29:21;;;;;;;5.18;4.78;;;9.50;99.90;;;;;;5050314;28;20033;-53
2022/05/01 05:31:47;;;;;;;5.03;4.60;;;9.60;99.90;;;;;;5049019;28;20112;-53
2022/05/01 05:34:13;;;;;;;6.25;5.63;;;9.70;99.90;;;;;;5050229;28;20484;-56
2022/05/01 05:36:38;;;;;;;5.43;4.95;;;9.80;99.90;;;;;;5046513;28;20100;-55
2022/05/01 05:39:04;;;;;;;8.60;5.43;;;9.80;99.90;;;;;;5049546;28;20783;-55
2022/05/01 05:41:30;;;;;;;6.78;5.40;;;9.90;99.90;;;;;;5048684;28;20025;-56
2022/05/01 05:43:55;;;;;;;5.28;4.88;;;9.80;99.90;;;;;;5052371;28;20507;-53
2022/05/01 05:46:21;;;;;;;6.07;5.50;;;10.00;99.90;;;;;;5053905;28;20025;-56
2022/05/01 05:48:47;;;;;;;6.32;5.72;;;9.90;99.90;;;;;;5042913;28;20124;-55
2022/05/01 05:51:12;;;;;;;5.20;4.70;;;9.80;99.90;;;;;;5035061;28;20026;-55
2022/05/01 05:53:38;;;;;;;5.22;4.63;;;10.00;99.90;;;;;;5053939;28;20028;-56
2022/05/01 05:56:04;;;;;;;5.65;5.03;;;10.10;99.90;;;;;;5051764;28;20044;-56
2022/05/01 05:58:29;;;;;;;13.30;8.40;;;10.20;99.90;;;;;;5034344;28;20025;-54
2022/05/01 06:00:55;;;;;;;12.95;8.35;;;10.40;99.90;;;;;;5034093;28;20032;-54
2022/05/01 06:03:21;;;;;;;4.82;4.43;;;10.20;99.90;;;;;;5034109;28;20104;-52
2022/05/01 06:05:47;;;;;;;4.30;3.95;;;10.10;99.90;;;;;;5038262;28;20032;-55
2022/05/01 06:08:13;;;;;;;5.63;5.13;;;10.40;99.90;;;;;;5046507;28;20036;-57
2022/05/01 06:10:38;;;;;;;6.13;5.57;;;10.50;99.90;;;;;;5053873;28;20155;-56
2022/05/01 06:13:04;;;;;;;10.98;7.53;;;10.40;99.90;;;;;;5051725;28;20108;-57
2022/05/01 06:15:30;;;;;;;6.28;5.68;;;10.50;99.90;;;;;;5053336;28;20045;-54
2022/05/01 06:17:56;;;;;;;8.07;6.68;;;10.60;99.90;;;;;;5041852;28;20041;-57
2022/05/01 06:20:22;;;;;;;4.88;4.40;;;10.60;99.90;;;;;;5033960;28;20473;-54
2022/05/01 06:22:50;;;;;;;7.75;4.43;;;10.90;99.90;;;;;;5034023;28;20044;-56
2022/05/01 06:25:16;;;;;;;4.75;4.35;;;10.90;99.90;;;;;;5047819;28;20031;-58
2022/05/01 06:27:42;;;;;;;9.00;4.88;;;10.90;99.90;;;;;;5039175;28;20506;-55
2022/05/01 06:30:11;;;;;;;4.90;4.47;;;11.10;99.90;;;;;;5034038;28;20037;-57
2022/05/01 06:32:40;;;;;;;5.18;4.47;;;11.20;99.90;;;;;;5033878;28;20025;-52
2022/05/01 06:35:07;;;;;;;5.45;4.20;;;11.10;99.90;;;;;;5033947;28;20684;-56
2022/05/01 06:37:37;;;;;;;6.28;5.50;;;10.80;99.90;;;;;;5041022;28;20354;-55
2022/05/01 06:40:04;;;;;;;4.40;4.00;;;11.00;99.90;;;;;;5036620;28;20033;-55
2022/05/01 06:42:31;;;;;;;4.50;4.10;;;11.10;99.90;;;;;;5035809;28;20037;-54
2022/05/01 06:44:57;;;;;;;3.95;3.55;;;11.10;99.90;;;;;;5053057;28;20021;-54
2022/05/01 06:47:23;;;;;;;4.10;3.70;;;11.00;99.90;;;;;;5053257;28;20021;-52
2022/05/01 06:49:48;;;;;;;10.15;4.15;;;11.00;99.90;;;;;;5052748;28;20419;-56
2022/05/01 06:52:19;;;;;;;3.80;3.50;;;10.80;99.90;;;;;;5052477;28;20033;-57
2022/05/01 06:54:44;;;;;;;4.25;3.85;;;11.00;99.90;;;;;;5032884;28;20034;-54
2022/05/01 06:57:10;;;;;;;4.47;4.05;;;10.80;99.90;;;;;;5043085;28;20033;-57
2022/05/01 06:59:36;;;;;;;4.38;3.95;;;10.60;99.90;;;;;;5050986;28;20491;-55
2022/05/01 07:02:01;;;;;;;4.20;3.83;;;10.60;99.90;;;;;;5052931;28;20040;-58
2022/05/01 07:04:27;;;;;;;4.45;4.05;;;11.00;99.90;;;;;;5052898;28;20032;-50
2022/05/01 07:06:53;;;;;;;4.18;3.78;;;10.90;99.90;;;;;;5053115;28;20029;-56
2022/05/01 07:09:18;;;;;;;6.40;5.20;;;11.00;99.90;;;;;;5053086;28;20029;-57
2022/05/01 07:11:44;;;;;;;7.43;3.88;;;11.20;99.90;;;;;;5051610;28;20028;-54
2022/05/01 07:14:09;;;;;;;4.68;4.28;;;11.50;99.90;;;;;;5052666;28;20068;-58
2022/05/01 07:16:35;;;;;;;4.90;4.40;;;11.70;99.90;;;;;;5051240;28;20568;-55
2022/05/01 07:19:01;;;;;;;9.70;7.03;;;11.60;99.90;;;;;;5036207;28;20120;-55
2022/05/01 07:21:26;;;;;;;3.45;3.15;;;11.50;99.90;;;;;;5052498;28;20104;-55
2022/05/01 07:23:52;;;;;;;4.28;3.88;;;11.90;99.90;;;;;;5052803;28;20036;-58
2022/05/01 07:26:18;;;;;;;3.10;2.90;;;11.90;99.90;;;;;;5042671;28;20637;-56
2022/05/01 07:28:44;;;;;;;4.15;3.80;;;11.90;99.90;;;;;;5032618;28;20033;-55
2022/05/01 07:31:09;;;;;;;6.65;3.92;;;11.80;99.90;;;;;;5032770;28;20546;-55
2022/05/01 07:33:35;;;;;;;3.90;3.47;;;11.80;99.90;;;;;;5032641;28;20504;-56
2022/05/01 07:36:01;;;;;;;4.43;3.97;;;11.90;99.90;;;;;;5032731;28;20508;-56
2022/05/01 07:38:26;;;;;;;4.30;3.80;;;11.90;99.90;;;;;;5033646;28;20384;-58
2022/05/01 07:40:53;;;;;;;4.95;4.45;;;12.00;99.90;;;;;;5033470;28;20029;-54
2022/05/01 07:43:19;;;;;;;4.55;4.15;;;12.00;99.90;;;;;;5035149;28;20021;-57
2022/05/01 07:45:45;;;;;;;7.13;4.25;;;11.60;99.90;;;;;;5051114;28;20036;-57
2022/05/01 07:48:11;;;;;;;5.03;4.45;;;11.90;99.90;;;;;;5035379;28;20041;-52
2022/05/01 07:50:37;;;;;;;5.40;4.88;;;12.00;99.90;;;;;;5045739;28;20041;-55
2022/05/01 07:53:03;;;;;;;4.85;4.35;;;12.10;99.90;;;;;;5050110;28;20040;-57
2022/05/01 07:55:28;;;;;;;4.88;4.47;;;12.10;99.90;;;;;;5051800;28;20017;-57
2022/05/01 07:57:54;;;;;;;5.10;4.03;;;12.40;99.90;;;;;;5035375;28;20087;-56
2022/05/01 08:00:20;;;;;;;5.82;4.70;;;12.40;99.90;;;;;;5031437;28;20017;-54
2022/05/01 08:05:29;;;;;;;;;;;12.70;99.90;;;;;;5031928;28;20044;-56
2022/05/01 08:07:57;;;;;;;4.97;4.45;;;12.40;99.90;;;;;;5039932;28;19912;-51
2022/05/01 08:10:22;;;;;;;6.68;5.32;;;12.50;99.90;;;;;;5045013;28;20048;-56
2022/05/01 08:12:48;;;;;;;5.25;4.60;;;12.50;99.90;;;;;;5033820;28;20099;-54
2022/05/01 08:15:18;;;;;;;6.82;4.88;;;12.80;99.90;;;;;;5031769;28;20534;-57
2022/05/01 08:17:45;;;;;;;5.85;4.95;;;12.90;99.90;;;;;;5031814;28;20025;-55
2022/05/01 08:23:03;;;;;;;6.35;5.55;;;13.00;99.90;;;;;;5048584;28;20058;-56
2022/05/01 08:25:28;;;;;;;6.03;5.43;;;12.90;99.90;;;;;;5049924;28;20029;-52
2022/05/01 08:27:54;;;;;;;6.53;5.90;;;12.90;99.90;;;;;;5049425;28;20025;-55
2022/05/01 08:30:20;;;;;;;8.30;6.10;;;13.00;99.90;;;;;;5036416;28;20079;-54
2022/05/01 08:32:45;;;;;;;6.93;5.55;;;13.10;99.90;;;;;;5031213;28;20048;-57
2022/05/01 08:35:11;;;;;;;8.38;6.35;;;13.50;99.90;;;;;;5030845;28;20029;-50
2022/05/01 08:37:37;;;;;;;8.85;7.13;;;13.70;99.90;;;;;;5030419;28;20550;-54
2022/05/01 08:40:03;;;;;;;10.07;6.13;;;13.70;99.90;;;;;;5031232;28;20083;-54
2022/05/01 08:42:33;;;;;;;7.25;6.55;;;13.40;99.90;;;;;;5031128;28;20084;-58
2022/05/01 08:45:01;;;;;;;6.72;6.13;;;13.50;99.90;;;;;;5030729;28;20022;-57
2022/05/01 08:47:49;;;;;;;9.38;7.13;;;13.60;99.90;;;;;;5031288;28;20024;-56
2022/05/01 08:50:17;;;;;;;7.72;6.53;;;13.40;99.90;;;;;;5031244;28;20029;-54
2022/05/01 08:52:45;;;;;;;6.68;5.97;;;13.30;99.90;;;;;;5031592;28;20025;-58
2022/05/01 08:55:13;;;;;;;8.20;6.72;;;13.30;99.90;;;;;;5031274;28;20021;-55
2022/05/01 08:57:39;;;;;;;7.05;6.22;;;13.30;99.90;;;;;;5031282;28;20469;-56
2022/05/01 09:00:07;;;;;;;8.68;6.05;;;13.60;99.90;;;;;;5031218;28;20476;-53
2022/05/01 09:02:33;;;;;;;7.28;5.82;;;14.10;99.90;;;;;;5031226;28;20113;-57
2022/05/01 09:04:59;;;;;;;6.20;5.60;;;14.30;99.90;;;;;;5031392;28;20021;-55
2022/05/01 09:07:25;;;;;;;6.38;5.20;;;14.30;99.90;;;;;;5031211;28;20032;-57
2022/05/01 09:09:51;;;;;;;11.18;5.50;;;14.00;99.90;;;;;;5031358;28;20030;-56
2022/05/01 09:15:04;;;;;;;6.25;5.65;;;14.50;99.90;;;;;;5031015;28;20107;-55
2022/05/01 09:17:30;;;;;;;6.90;5.85;;;14.60;99.90;;;;;;5030755;28;20104;-58
2022/05/01 09:20:09;;;;;;;9.35;6.07;;;14.60;99.90;;;;;;5035306;28;20144;-53
2022/05/01 09:22:52;;;;;;;7.22;5.68;;;14.30;99.90;;;;;;5035256;28;20025;-52
2022/05/01 09:25:22;;;;;;;5.38;4.88;;;14.50;99.90;;;;;;5035007;28;20460;-56
2022/05/01 09:27:59;;;;;;;5.65;5.15;;;14.70;99.90;;;;;;5035008;28;20376;-58
2022/05/01 09:30:33;;;;;;;5.60;5.07;;;14.90;99.90;;;;;;5034633;28;20026;-54
2022/05/01 09:32:59;;;;;;;5.47;4.72;;;15.20;99.90;;;;;;5038210;28;20024;-57
2022/05/01 09:35:36;;;;;;;6.50;5.57;;;15.00;99.90;;;;;;5054048;28;20029;-58
2022/05/01 09:38:21;;;;;;;5.95;5.40;;;14.80;99.90;;;;;;5054771;28;20025;-53
2022/05/01 09:40:55;;;;;;;6.05;5.30;;;15.00;99.90;;;;;;5035345;28;20094;-55
2022/05/01 09:43:36;;;;;;;6.75;5.68;;;15.40;99.90;;;;;;5045351;28;20373;-57
2022/05/01 09:46:12;;;;;;;5.28;4.78;;;14.70;99.90;;;;;;5029255;28;20034;-55
2022/05/01 09:48:37;;;;;;;5.43;4.93;;;14.80;99.90;;;;;;5025118;28;20030;-57
2022/05/01 09:51:17;;;;;;;5.80;4.95;;;15.40;99.90;;;;;;5024438;28;20045;-57
2022/05/01 09:53:44;;;;;;;6.30;4.93;;;15.70;99.90;;;;;;5025405;28;20133;-54
2022/05/01 09:56:09;;;;;;;13.90;9.73;;;15.80;99.90;;;;;;5027709;28;20095;-55
2022/05/01 09:58:40;;;;;;;8.73;7.30;;;15.40;99.90;;;;;;5034016;28;20827;-55
2022/05/01 10:01:15;;;;;;;7.13;4.85;;;15.20;99.90;;;;;;5034343;28;20033;-57
2022/05/01 10:03:45;;;;;;;6.60;4.63;;;15.80;99.90;;;;;;5051821;28;20033;-56
2022/05/01 10:06:12;;;;;;;5.50;4.82;;;15.90;98.60;;;;;;5054058;28;20369;-56
2022/05/01 10:08:39;;;;;;;4.57;3.75;;;15.80;99.20;;;;;;5053917;28;20036;-53
2022/05/01 10:11:06;;;;;;;20.83;15.50;;;15.80;99.70;;;;;;5053479;28;20029;-53
2022/05/01 10:13:32;;;;;;;4.93;4.15;;;15.80;97.80;;;;;;5053799;28;20060;-54
2022/05/01 10:16:00;;;;;;;10.82;9.18;;;15.90;98.20;;;;;;5054367;28;20025;-54
2022/05/01 10:18:26;;;;;;;5.22;4.72;;;15.40;99.20;;;;;;5052800;28;20143;-53
2022/05/01 10:20:53;;;;;;;5.57;4.72;;;15.90;99.90;;;;;;5053865;28;20021;-54
2022/05/01 10:23:18;;;;;;;8.38;4.70;;;16.20;98.80;;;;;;5052310;28;20468;-56
2022/05/01 10:26:11;;;;;;;7.68;5.90;;;16.20;99.70;;;;;;5052345;28;20031;-56
2022/05/01 10:28:54;;;;;;;6.05;5.10;;;16.20;98.60;;;;;;5052813;28;20087;-51
2022/05/01 10:34:28;;;;;;;5.57;4.90;;;16.50;98.40;;;;;;5042250;28;19919;-58
2022/05/01 10:37:19;;;;;;;6.57;4.93;;;16.50;96.90;;;;;;5034254;28;20029;-54
2022/05/01 10:39:46;;;;;;;5.63;4.68;;;16.20;97.70;;;;;;5033698;28;20030;-54
2022/05/01 10:42:11;;;;;;;6.43;5.53;;;16.40;97.50;;;;;;5033533;28;20017;-55
2022/05/01 10:44:38;;;;;;;18.67;9.75;;;16.00;97.70;;;;;;5033362;28;20033;-55
2022/05/01 10:47:05;;;;;;;19.98;11.13;;;16.20;97.40;;;;;;5033684;28;20025;-54
2022/05/01 10:49:36;;;;;;;6.95;5.47;;;16.30;97.80;;;;;;5049796;28;20138;-55
2022/05/01 10:52:23;;;;;;;4.93;4.18;;;16.40;96.60;;;;;;5050815;28;20031;-54
2022/05/01 10:54:57;;;;;;;5.47;4.25;;;16.40;96.10;;;;;;5053536;28;20029;-54
2022/05/01 10:57:23;;;;;;;4.88;4.38;;;16.40;95.60;;;;;;5052762;28;20033;-56
2022/05/01 10:59:50;;;;;;;8.00;4.45;;;16.60;96.60;;;;;;5053146;28;20040;-54
2022/05/01 11:02:24;;;;;;;5.00;4.38;;;16.40;95.40;;;;;;5038987;28;20048;-57
2022/05/01 11:04:54;;;;;;;4.55;4.10;;;16.40;96.20;;;;;;5025323;28;20029;-58
2022/05/01 11:07:21;;;;;;;6.07;4.47;;;16.50;95.40;;;;;;5024549;28;20029;-54
2022/05/01 11:09:49;;;;;;;5.72;4.22;;;16.10;96.40;;;;;;5027959;28;20091;-54
2022/05/01 11:12:17;;;;;;;5.97;3.85;;;16.30;97.30;;;;;;5028895;28;20087;-58
2022/05/01 11:14:52;;;;;;;5.30;4.43;;;16.60;95.70;;;;;;5029537;28;20042;-58
2022/05/01 11:17:36;;;;;;;5.45;4.13;;;16.80;94.60;;;;;;5043740;28;20064;-57
2022/05/01 11:20:09;;;;;;;;;;;16.90;94.60;;;;;;5045305;28;20032;-55
2022/05/01 11:22:34;;;;;;;4.97;4.00;;;16.60;95.10;;;;;;5038220;28;20415;-57
2022/05/01 11:25:01;;;;;;;5.93;5.32;;;16.50;95.20;;;;;;5049524;28;20116;-54
2022/05/01 11:27:27;;;;;;;4.43;4.00;;;16.20;95.30;;;;;;5035421;28;20025;-58
2022/05/01 11:30:09;;;;;;;5.53;4.57;;;15.90;95.70;;;;;;5029629;28;20457;-58
2022/05/01 11:32:48;;;;;;;6.65;4.75;;;15.80;96.60;;;;;;5029346;28;20037;-58
2022/05/01 11:35:14;;;;;;;4.75;4.00;;;16.20;96.20;;;;;;5028641;28;20115;-56
2022/05/01 11:38:06;;;;;;;4.47;4.07;;;16.40;97.00;;;;;;5029148;28;20431;-57
2022/05/01 11:40:32;;;;;;;4.10;3.78;;;16.20;96.30;;;;;;5029007;28;20071;-59
2022/05/01 11:43:16;;;;;;;4.78;4.35;;;16.50;95.70;;;;;;5029179;28;20564;-59
2022/05/01 11:45:42;;;;;;;;;;;16.50;94.90;;;;;;5031336;28;20026;-59
2022/05/01 11:48:16;;;;;;;5.70;4.88;;;16.60;95.30;;;;;;5034624;28;19938;-56
2022/05/01 11:50:43;;;;;;;5.85;4.72;;;16.70;95.90;;;;;;5047916;28;20440;-56
2022/05/01 11:53:19;;;;;;;6.22;4.28;;;16.80;95.60;;;;;;5048561;28;20598;-56
2022/05/01 12:04:35;;;;;;;5.13;4.30;;;17.40;94.30;;;;;;5048820;28;20043;-56
2022/05/01 12:07:21;;;;;;;5.25;4.75;;;17.10;93.80;;;;;;5032423;28;20018;-53
2022/05/01 12:09:48;;;;;;;6.03;5.03;;;16.90;95.10;;;;;;5028546;28;20091;-56
2022/05/01 12:12:19;;;;;;;6.88;4.63;;;16.70;96.00;;;;;;5037583;28;20032;-58
2022/05/01 12:14:46;;;;;;;6.05;5.40;;;16.80;93.80;;;;;;5048263;28;20052;-57
2022/05/01 12:17:14;;;;;;;4.53;4.07;;;17.20;93.90;;;;;;5048509;28;20032;-56
2022/05/01 12:19:44;;;;;;;6.60;4.93;;;17.60;92.80;;;;;;5048164;28;20029;-57
2022/05/01 12:22:15;;;;;;;5.53;4.93;;;17.70;91.40;;;;;;5048513;28;20092;-56
2022/05/01 12:24:43;;;;;;;4.22;3.83;;;17.30;92.70;;;;;;5044190;28;20033;-54
2022/05/01 12:27:10;;;;;;;10.43;5.13;;;17.00;92.20;;;;;;5033188;28;20030;-55
2022/05/01 12:29:39;;;;;;;4.38;3.97;;;16.80;94.20;;;;;;5029692;28;20025;-56
2022/05/01 12:32:13;;;;;;;5.88;5.07;;;16.90;94.60;;;;;;5048597;28;20025;-56
2022/05/01 12:34:43;;;;;;;6.75;5.40;;;17.10;95.40;;;;;;5047911;28;20053;-56
2022/05/01 12:37:19;;;;;;;6.28;5.50;;;16.80;94.80;;;;;;5047976;28;20025;-53
2022/05/01 12:40:10;;;;;;;6.07;5.55;;;16.40;97.10;;;;;;5051114;28;20025;-54
2022/05/01 12:45:43;;;;;;;6.15;5.53;;;16.60;97.70;;;;;;5051641;28;20531;-55
2022/05/01 12:48:11;;;;;;;7.53;4.35;;;16.60;97.30;;;;;;5071565;28;20025;-56
2022/05/01 12:50:38;;;;;;;5.57;3.90;;;16.80;95.90;;;;;;5058683;28;20028;-57
2022/05/01 12:53:27;;;;;;;7.05;4.50;;;17.20;96.00;;;;;;5018082;28;20041;-55
2022/05/01 12:55:54;;;;;;;4.30;3.90;;;17.50;94.30;;;;;;5018152;28;20037;-57
2022/05/01 12:58:34;;;;;;;7.43;4.43;;;17.70;95.30;;;;;;5022762;28;20064;-56
2022/05/01 13:01:04;;;;;;;4.57;4.18;;;18.00;94.10;;;;;;5018164;28;20029;-55
2022/05/01 13:03:37;;;;;;;5.20;4.05;;;18.00;94.30;;;;;;5020286;28;20022;-56
2022/05/01 13:06:07;;;;;;;4.07;3.67;;;18.30;93.50;;;;;;5021157;28;20034;-56
2022/05/01 13:08:35;;;;;;;4.43;4.00;;;18.20;90.50;;;;;;5020060;28;20072;-56
2022/05/01 13:11:10;;;;;;;4.75;3.88;;;17.50;91.00;;;;;;5018912;28;20117;-56
2022/05/01 13:13:44;;;;;;;3.92;3.63;;;18.00;91.20;;;;;;5019665;28;20087;-53
2022/05/01 13:16:11;;;;;;;7.20;3.58;;;18.40;91.00;;;;;;5019431;28;20041;-55
2022/05/01 13:18:37;;;;;;;4.03;3.63;;;18.30;90.30;;;;;;5020592;28;20408;-55
2022/05/01 13:21:02;;;;;;;4.15;3.75;;;18.60;90.80;;;;;;5022582;28;20025;-57
2022/05/01 13:23:28;;;;;;;4.15;3.72;;;18.70;91.20;;;;;;5020002;28;20053;-57
2022/05/01 13:25:55;;;;;;;4.80;3.88;;;19.10;88.30;;;;;;5020371;28;20019;-57
2022/05/01 13:28:20;;;;;;;5.70;3.80;;;19.00;88.10;;;;;;5019693;28;20365;-55
2022/05/01 13:30:46;;;;;;;4.60;3.60;;;18.60;88.30;;;;;;5020533;28;20029;-57
2022/05/01 13:33:12;;;;;;;4.90;3.58;;;18.50;90.50;;;;;;5019427;28;20727;-54